createdAt,value
2019-05-29T00:00:13.393Z,12.40
2019-05-29T00:02:42.747Z,12.40
2019-05-29T00:05:12.204Z,12.50
2019-05-29T00:07:40.877Z,12.30
2019-05-29T00:10:10.515Z,12.40
2019-05-29T00:12:39.173Z,12.40
2019-05-29T00:15:08.387Z,12.40
2019-05-29T00:17:36.994Z,12.40
2019-05-29T00:20:06.329Z,12.40
2019-05-29T00:22:35.046Z,12.30
2019-05-29T00:25:04.561Z,12.20
2019-05-29T00:27:33.132Z,12.20
2019-05-29T00:30:01.710Z,12.10
2019-05-29T00:32:30.293Z,12.00
2019-05-29T00:34:58.865Z,11.90
2019-05-29T00:37:27.344Z,11.80
2019-05-29T00:39:55.980Z,11.80
2019-05-29T00:42:24.564Z,11.60
2019-05-29T00:44:53.127Z,11.60
2019-05-29T00:47:21.791Z,11.50
2019-05-29T00:49:50.404Z,11.60
2019-05-29T00:52:19.016Z,11.40
2019-05-29T00:54:47.501Z,11.50
2019-05-29T00:57:17.050Z,11.40
2019-05-29T00:59:45.661Z,11.30
2019-05-29T01:02:14.170Z,11.30
2019-05-29T01:04:42.742Z,11.50
2019-05-29T01:07:12.291Z,11.60
2019-05-29T01:09:40.958Z,11.60
2019-05-29T01:12:10.722Z,11.60
2019-05-29T01:14:49.796Z,11.60
2019-05-29T01:17:09.587Z,11.60
2019-05-29T01:19:38.410Z,11.50
2019-05-29T01:22:07.000Z,11.50
2019-05-29T01:24:35.567Z,11.50
2019-05-29T01:27:04.220Z,11.50
2019-05-29T01:29:32.752Z,11.50
2019-05-29T01:32:01.266Z,11.50
2019-05-29T01:34:29.838Z,11.60
2019-05-29T01:36:58.458Z,11.70
2019-05-29T01:39:27.724Z,11.60
2019-05-29T01:41:56.297Z,11.70
2019-05-29T01:44:24.901Z,11.60
2019-05-29T01:46:53.668Z,11.70
2019-05-29T01:49:22.238Z,11.60
2019-05-29T01:51:50.835Z,11.50
2019-05-29T01:54:19.730Z,11.50
2019-05-29T01:56:48.364Z,11.60
2019-05-29T01:59:17.739Z,11.60
2019-05-29T02:01:46.333Z,11.60
2019-05-29T02:04:15.826Z,11.50
2019-05-29T02:06:44.414Z,11.60
2019-05-29T02:09:12.946Z,11.70
2019-05-29T02:11:41.536Z,11.60
2019-05-29T02:14:10.090Z,11.80
2019-05-29T02:16:38.688Z,11.70
2019-05-29T02:19:07.192Z,11.50
2019-05-29T02:21:35.767Z,11.60
2019-05-29T02:24:04.476Z,11.60
2019-05-29T02:26:33.042Z,11.40
2019-05-29T02:29:01.630Z,11.50
2019-05-29T02:31:30.199Z,11.60
2019-05-29T02:33:58.781Z,11.50
2019-05-29T02:36:28.672Z,11.50
2019-05-29T02:38:57.342Z,11.50
2019-05-29T02:41:27.947Z,11.50
2019-05-29T02:43:56.131Z,11.50
2019-05-29T02:46:26.434Z,11.50
2019-05-29T02:48:55.025Z,11.50
2019-05-29T02:51:24.207Z,11.60
2019-05-29T02:53:52.878Z,11.50
2019-05-29T02:56:22.934Z,11.70
2019-05-29T02:58:51.742Z,11.60
2019-05-29T03:01:21.511Z,11.50
2019-05-29T03:03:50.654Z,11.60
2019-05-29T03:06:19.287Z,11.70
2019-05-29T03:08:47.935Z,11.70
2019-05-29T03:11:16.501Z,11.60
2019-05-29T03:13:45.554Z,11.60
2019-05-29T03:16:14.132Z,11.60
2019-05-29T03:18:42.729Z,11.30
2019-05-29T03:21:11.283Z,11.40
2019-05-29T03:23:39.950Z,11.30
2019-05-29T03:26:08.508Z,11.20
2019-05-29T03:28:38.208Z,11.40
2019-05-29T03:31:07.058Z,11.40
2019-05-29T03:33:44.985Z,11.30
2019-05-29T03:36:05.864Z,11.30
2019-05-29T03:38:35.033Z,11.20
2019-05-29T03:41:03.759Z,11.30
2019-05-29T03:43:35.004Z,11.30
2019-05-29T03:46:02.715Z,11.30
2019-05-29T03:48:32.377Z,11.20
2019-05-29T03:51:01.564Z,11.20
2019-05-29T03:53:31.685Z,11.40
2019-05-29T03:56:00.365Z,11.30
2019-05-29T03:58:29.429Z,11.50
2019-05-29T04:00:59.177Z,11.30
2019-05-29T04:03:28.952Z,11.20
2019-05-29T04:05:57.636Z,11.20
2019-05-29T04:08:27.375Z,11.30
2019-05-29T04:10:56.577Z,11.20
2019-05-29T04:13:27.256Z,11.40
2019-05-29T04:15:57.142Z,11.30
2019-05-29T04:18:27.591Z,11.40
2019-05-29T04:20:58.155Z,11.20
2019-05-29T04:23:30.050Z,11.10
2019-05-29T04:26:01.685Z,11.30
2019-05-29T04:28:32.376Z,11.20
2019-05-29T04:31:01.997Z,11.20
2019-05-29T04:33:31.174Z,11.40
2019-05-29T04:36:00.813Z,11.30
2019-05-29T04:38:31.018Z,11.30
2019-05-29T04:40:59.762Z,11.10
2019-05-29T04:43:28.825Z,11.40
2019-05-29T04:45:57.511Z,11.30
2019-05-29T04:48:26.069Z,11.40
2019-05-29T04:50:54.646Z,11.40
2019-05-29T04:53:23.215Z,11.50
2019-05-29T04:55:51.956Z,11.60
2019-05-29T04:58:20.568Z,11.70
2019-05-29T05:00:58.678Z,11.70
2019-05-29T05:03:19.379Z,11.60
2019-05-29T05:05:47.953Z,11.80
2019-05-29T05:08:16.517Z,11.80
2019-05-29T05:10:45.277Z,12.00
2019-05-29T05:13:13.920Z,11.90
2019-05-29T05:15:44.822Z,11.90
2019-05-29T05:18:14.391Z,11.90
2019-05-29T05:20:42.972Z,12.00
2019-05-29T05:23:11.553Z,12.10
2019-05-29T05:25:41.020Z,12.10
2019-05-29T05:28:09.717Z,12.10
2019-05-29T05:30:38.543Z,12.00
2019-05-29T05:33:07.057Z,11.90
2019-05-29T05:35:36.740Z,12.00
2019-05-29T05:38:05.380Z,11.90
2019-05-29T05:40:37.143Z,11.90
2019-05-29T05:43:04.492Z,12.30
2019-05-29T05:45:33.146Z,12.30
2019-05-29T05:48:01.701Z,12.40
2019-05-29T05:50:31.082Z,12.30
2019-05-29T05:52:59.671Z,12.50
2019-05-29T05:55:28.234Z,12.70
2019-05-29T05:57:56.819Z,12.70
2019-05-29T06:00:33.951Z,12.60
2019-05-29T06:03:02.716Z,12.60
2019-05-29T06:05:32.079Z,12.50
2019-05-29T06:08:00.734Z,12.70
2019-05-29T06:10:29.285Z,12.90
2019-05-29T06:12:57.889Z,12.90
2019-05-29T06:15:26.486Z,12.80
2019-05-29T06:18:10.432Z,12.90
2019-05-29T06:20:25.341Z,13.10
2019-05-29T06:22:53.906Z,13.20
2019-05-29T06:25:23.031Z,13.20
2019-05-29T06:27:51.605Z,13.60
2019-05-29T06:30:20.587Z,13.80
2019-05-29T06:32:49.168Z,13.80
2019-05-29T06:35:18.368Z,14.00
2019-05-29T06:37:46.934Z,13.80
2019-05-29T06:40:18.591Z,13.60
2019-05-29T06:42:47.146Z,13.40
2019-05-29T06:45:18.746Z,13.50
2019-05-29T06:47:47.288Z,13.50
2019-05-29T06:50:15.912Z,13.70
2019-05-29T06:52:44.425Z,13.80
2019-05-29T06:55:13.043Z,13.90
2019-05-29T06:57:42.670Z,14.20
2019-05-29T07:00:11.871Z,14.20
2019-05-29T07:02:40.869Z,14.10
2019-05-29T07:05:09.469Z,14.00
2019-05-29T07:07:38.340Z,13.90
2019-05-29T07:10:07.203Z,13.80
2019-05-29T07:12:36.273Z,13.70
2019-05-29T07:15:07.950Z,13.70
2019-05-29T07:17:36.600Z,13.50
2019-05-29T07:20:09.119Z,13.50
2019-05-29T07:22:38.901Z,13.50
2019-05-29T07:25:07.732Z,13.60
2019-05-29T07:27:36.855Z,13.90
2019-05-29T07:30:07.187Z,14.30
2019-05-29T07:32:38.101Z,15.00
2019-05-29T07:35:07.218Z,15.70
2019-05-29T07:37:35.910Z,15.00
2019-05-29T07:40:07.880Z,14.70
2019-05-29T07:42:36.464Z,14.60
2019-05-29T07:45:06.857Z,15.50
2019-05-29T07:47:35.431Z,15.80
2019-05-29T07:50:05.833Z,15.90
2019-05-29T07:52:34.730Z,15.80
2019-05-29T07:55:04.724Z,16.30
2019-05-29T07:57:33.274Z,16.80
2019-05-29T08:00:01.844Z,17.20
2019-05-29T08:02:30.393Z,19.00
2019-05-29T08:04:58.954Z,20.00
2019-05-29T08:07:27.583Z,20.50
2019-05-29T08:09:56.183Z,20.20
2019-05-29T08:12:24.744Z,21.10
2019-05-29T08:14:53.435Z,22.00
2019-05-29T08:17:21.958Z,21.40
2019-05-29T08:20:02.685Z,21.60
2019-05-29T08:22:33.704Z,21.90
2019-05-29T08:24:51.184Z,22.50
2019-05-29T08:27:19.709Z,22.90
2019-05-29T08:29:48.839Z,22.00
2019-05-29T08:32:17.434Z,21.80
2019-05-29T08:34:47.074Z,22.10
2019-05-29T08:37:15.643Z,21.70
2019-05-29T08:39:45.351Z,19.50
2019-05-29T08:42:23.535Z,19.60
2019-05-29T08:44:45.324Z,21.70
2019-05-29T08:47:14.068Z,20.20
2019-05-29T08:49:43.597Z,21.30
2019-05-29T08:52:12.714Z,22.50
2019-05-29T08:54:42.065Z,23.60
2019-05-29T08:57:10.815Z,23.50
2019-05-29T08:59:39.375Z,23.80
2019-05-29T09:02:07.954Z,22.50
2019-05-29T09:04:36.557Z,21.10
2019-05-29T09:07:05.242Z,21.80
2019-05-29T09:09:33.832Z,22.50
2019-05-29T09:12:02.416Z,22.80
2019-05-29T09:14:31.025Z,23.00
2019-05-29T09:16:59.703Z,24.00
2019-05-29T09:19:28.278Z,24.10
2019-05-29T09:21:56.855Z,25.20
2019-05-29T09:24:25.412Z,24.60
2019-05-29T09:26:53.981Z,24.20
2019-05-29T09:29:23.817Z,24.00
2019-05-29T09:31:52.770Z,23.70
2019-05-29T09:34:22.669Z,23.60
2019-05-29T09:36:54.938Z,24.10
2019-05-29T09:39:22.680Z,24.20
2019-05-29T09:41:51.301Z,25.00
2019-05-29T09:44:33.989Z,25.70
2019-05-29T09:46:50.245Z,24.20
2019-05-29T09:49:20.192Z,25.00
2019-05-29T09:51:48.773Z,25.20
2019-05-29T09:54:17.350Z,25.60
2019-05-29T09:56:45.889Z,25.00
2019-05-29T09:59:14.389Z,26.10
2019-05-29T10:01:43.011Z,25.40
2019-05-29T10:04:11.566Z,26.40
2019-05-29T10:06:40.138Z,25.70
2019-05-29T10:09:10.014Z,25.20
2019-05-29T10:11:39.709Z,24.30
2019-05-29T10:14:08.399Z,24.60
2019-05-29T10:16:36.964Z,25.20
2019-05-29T10:19:05.663Z,25.90
2019-05-29T10:21:40.800Z,25.30
2019-05-29T10:24:06.047Z,25.80
2019-05-29T10:26:34.769Z,26.70
2019-05-29T10:29:10.054Z,27.20
2019-05-29T10:31:39.514Z,25.10
2019-05-29T10:34:08.159Z,26.50
2019-05-29T10:36:38.794Z,25.70
2019-05-29T10:39:08.162Z,25.80
2019-05-29T10:41:36.767Z,24.90
2019-05-29T10:44:05.483Z,24.90
2019-05-29T10:46:34.074Z,23.70
2019-05-29T10:49:04.683Z,22.90
2019-05-29T10:51:32.838Z,24.10
2019-05-29T10:54:01.450Z,24.30
2019-05-29T10:56:29.964Z,24.40
2019-05-29T10:59:00.100Z,23.90
2019-05-29T11:01:28.971Z,23.80
2019-05-29T11:03:57.538Z,24.90
2019-05-29T11:06:26.168Z,25.40
2019-05-29T11:08:56.129Z,25.90
2019-05-29T11:11:24.773Z,25.00
2019-05-29T11:13:53.365Z,25.60
2019-05-29T11:16:21.945Z,25.40
2019-05-29T11:18:51.244Z,25.00
2019-05-29T11:21:19.862Z,25.40
2019-05-29T11:23:49.753Z,26.80
2019-05-29T11:26:18.562Z,25.30
2019-05-29T11:28:48.353Z,25.50
2019-05-29T11:31:17.649Z,25.20
2019-05-29T11:33:46.434Z,25.50
2019-05-29T11:36:15.098Z,25.90
2019-05-29T11:38:44.848Z,25.40
2019-05-29T11:41:25.941Z,25.40
2019-05-29T11:43:43.756Z,26.00
2019-05-29T11:46:12.451Z,27.20
2019-05-29T11:48:41.044Z,26.60
2019-05-29T11:51:10.003Z,25.50
2019-05-29T11:53:38.624Z,24.40
2019-05-29T11:56:07.238Z,24.70
2019-05-29T11:58:35.848Z,24.60
2019-05-29T12:01:04.630Z,26.50
2019-05-29T12:03:33.236Z,26.10
2019-05-29T12:06:03.222Z,26.70
2019-05-29T12:08:31.794Z,26.10
2019-05-29T12:11:01.481Z,25.60
2019-05-29T12:13:30.154Z,26.20
2019-05-29T12:15:59.677Z,26.80
2019-05-29T12:18:28.315Z,26.10
2019-05-29T12:20:58.266Z,25.10
2019-05-29T12:23:27.395Z,24.70
2019-05-29T12:26:16.599Z,24.90
2019-05-29T12:28:26.220Z,25.10
2019-05-29T12:30:55.184Z,25.70
2019-05-29T12:33:23.938Z,26.30
2019-05-29T12:35:52.870Z,25.50
2019-05-29T12:38:21.570Z,26.10
2019-05-29T12:40:50.118Z,25.30
2019-05-29T12:43:27.326Z,24.70
2019-05-29T12:45:49.155Z,24.30
2019-05-29T12:48:17.941Z,24.60
2019-05-29T12:50:46.632Z,25.40
2019-05-29T12:53:29.790Z,25.90
2019-05-29T12:55:46.224Z,24.40
2019-05-29T12:58:14.782Z,25.10
2019-05-29T13:00:43.367Z,24.60
2019-05-29T13:03:11.929Z,23.10
2019-05-29T13:05:40.475Z,22.90
2019-05-29T13:08:09.030Z,22.00
2019-05-29T13:10:37.594Z,20.80
2019-05-29T13:13:10.684Z,20.60
2019-05-29T13:15:36.447Z,20.70
2019-05-29T13:18:09.508Z,20.00
2019-05-29T13:20:35.747Z,19.20
2019-05-29T13:23:06.727Z,18.90
2019-05-29T13:25:34.664Z,19.60
2019-05-29T13:28:04.735Z,20.10
2019-05-29T13:30:33.617Z,20.80
2019-05-29T13:33:03.590Z,20.40
2019-05-29T13:35:32.451Z,20.40
2019-05-29T13:38:01.054Z,19.90
2019-05-29T13:40:29.596Z,19.90
2019-05-29T13:43:04.345Z,20.30
2019-05-29T13:45:28.421Z,21.30
2019-05-29T13:47:56.961Z,21.60
2019-05-29T13:50:25.833Z,21.40
2019-05-29T13:52:54.384Z,21.70
2019-05-29T13:55:22.956Z,22.30
2019-05-29T13:57:51.498Z,21.80
2019-05-29T14:00:36.617Z,21.90
2019-05-29T14:02:51.423Z,21.60
2019-05-29T14:05:20.342Z,21.10
2019-05-29T14:07:48.898Z,21.40
2019-05-29T14:10:17.627Z,21.80
2019-05-29T14:12:46.257Z,21.40
2019-05-29T14:15:15.887Z,20.60
2019-05-29T14:17:44.445Z,19.80
2019-05-29T14:20:14.075Z,20.20
2019-05-29T14:22:42.848Z,19.50
2019-05-29T14:25:11.825Z,19.50
2019-05-29T14:27:40.407Z,20.00
2019-05-29T14:30:10.642Z,20.40
2019-05-29T14:32:39.456Z,20.80
2019-05-29T14:35:10.409Z,20.80
2019-05-29T14:37:38.748Z,20.80
2019-05-29T14:40:07.927Z,20.90
2019-05-29T14:42:36.716Z,20.60
2019-05-29T14:45:10.327Z,20.40
2019-05-29T14:47:39.163Z,20.10
2019-05-29T14:50:08.758Z,20.40
2019-05-29T14:52:37.551Z,20.80
2019-05-29T14:55:08.765Z,20.30
2019-05-29T14:57:37.897Z,19.80
2019-05-29T15:00:22.263Z,19.50
2019-05-29T15:02:38.976Z,20.00
2019-05-29T15:05:07.933Z,20.10
2019-05-29T15:07:36.546Z,20.30
2019-05-29T15:10:19.795Z,19.90
2019-05-29T15:12:38.867Z,19.80
2019-05-29T15:15:08.885Z,19.60
2019-05-29T15:17:37.730Z,19.50
2019-05-29T15:20:10.449Z,19.30
2019-05-29T15:22:40.251Z,19.60
2019-05-29T15:25:18.370Z,20.00
2019-05-29T15:27:39.344Z,19.90
2019-05-29T15:30:11.217Z,19.40
2019-05-29T15:32:40.228Z,20.00
2019-05-29T15:35:13.822Z,19.10
2019-05-29T15:37:39.511Z,18.90
2019-05-29T15:40:08.995Z,19.10
2019-05-29T15:42:37.618Z,19.40
2019-05-29T15:45:07.645Z,19.00
2019-05-29T15:47:36.294Z,19.00
2019-05-29T15:50:11.126Z,19.30
2019-05-29T15:52:40.169Z,18.70
2019-05-29T15:55:21.244Z,18.90
2019-05-29T15:57:39.196Z,18.20
2019-05-29T16:00:09.578Z,17.80
2019-05-29T16:02:38.210Z,17.80
2019-05-29T16:05:08.601Z,17.70
2019-05-29T16:07:37.289Z,17.60
2019-05-29T16:10:13.065Z,17.40
2019-05-29T16:12:40.072Z,17.70
2019-05-29T16:15:11.013Z,17.50
2019-05-29T16:17:39.859Z,17.50
2019-05-29T16:20:10.370Z,17.50
2019-05-29T16:22:39.362Z,17.60
2019-05-29T16:25:10.870Z,17.90
2019-05-29T16:27:39.467Z,17.90
2019-05-29T16:30:09.158Z,18.00
2019-05-29T16:32:37.760Z,17.60
2019-05-29T16:35:08.550Z,17.80
2019-05-29T16:37:37.209Z,17.80
2019-05-29T16:40:11.781Z,17.80
2019-05-29T16:42:40.474Z,18.00
2019-05-29T16:45:12.089Z,17.80
2019-05-29T16:47:40.734Z,17.60
2019-05-29T16:50:09.856Z,17.60
2019-05-29T16:52:38.585Z,17.20
2019-05-29T16:55:07.617Z,17.40
2019-05-29T16:57:36.229Z,17.50
2019-05-29T17:00:07.755Z,17.80
2019-05-29T17:02:36.382Z,17.40
2019-05-29T17:05:06.181Z,17.20
2019-05-29T17:07:34.748Z,17.10
2019-05-29T17:10:05.033Z,17.00
2019-05-29T17:12:33.524Z,16.80
2019-05-29T17:15:02.103Z,16.70
2019-05-29T17:17:30.767Z,17.10
2019-05-29T17:19:59.386Z,17.10
2019-05-29T17:22:27.937Z,17.20
2019-05-29T17:24:56.510Z,17.10
2019-05-29T17:27:25.270Z,16.90
2019-05-29T17:29:53.813Z,17.10
2019-05-29T17:32:23.212Z,17.10
2019-05-29T17:34:51.830Z,16.90
2019-05-29T17:37:21.039Z,16.90
2019-05-29T17:39:49.665Z,16.80
2019-05-29T17:42:18.237Z,16.80
2019-05-29T17:44:46.802Z,16.80
2019-05-29T17:47:15.746Z,16.70
2019-05-29T17:49:44.413Z,16.90
2019-05-29T17:52:12.957Z,16.60
2019-05-29T17:54:41.475Z,16.60
2019-05-29T17:57:10.093Z,16.60
2019-05-29T17:59:38.671Z,16.50
2019-05-29T18:02:07.233Z,16.60
2019-05-29T18:04:35.829Z,16.40
2019-05-29T18:07:04.354Z,16.30
2019-05-29T18:09:32.918Z,16.30
2019-05-29T18:12:01.409Z,16.30
2019-05-29T18:14:29.979Z,16.30
2019-05-29T18:16:58.541Z,16.10
2019-05-29T18:19:28.124Z,16.20
2019-05-29T18:21:56.938Z,16.20
2019-05-29T18:24:26.085Z,16.10
2019-05-29T18:26:54.689Z,16.10
2019-05-29T18:29:24.351Z,16.00
2019-05-29T18:31:53.153Z,15.90
2019-05-29T18:34:22.785Z,15.90
2019-05-29T18:36:51.381Z,16.00
2019-05-29T18:39:20.211Z,15.80
2019-05-29T18:41:48.811Z,15.80
2019-05-29T18:44:17.371Z,15.70
2019-05-29T18:46:45.939Z,15.70
2019-05-29T18:49:15.024Z,15.60
2019-05-29T18:51:43.570Z,15.50
2019-05-29T18:54:12.130Z,15.40
2019-05-29T18:56:40.723Z,15.10
2019-05-29T18:59:09.347Z,15.10
2019-05-29T19:01:37.914Z,15.10
2019-05-29T19:04:06.554Z,15.10
2019-05-29T19:06:35.182Z,15.10
2019-05-29T19:09:05.274Z,14.90
2019-05-29T19:11:33.846Z,15.00
2019-05-29T19:14:02.430Z,14.90
2019-05-29T19:16:31.976Z,14.80
2019-05-29T19:19:00.761Z,14.70
2019-05-29T19:21:30.499Z,14.70
2019-05-29T19:23:59.096Z,14.70
2019-05-29T19:26:28.776Z,14.50
2019-05-29T19:28:57.326Z,14.40
2019-05-29T19:31:26.988Z,14.40
2019-05-29T19:33:55.667Z,14.40
2019-05-29T19:36:25.524Z,14.40
2019-05-29T19:38:54.184Z,14.20
2019-05-29T19:41:23.823Z,14.30
2019-05-29T19:43:52.428Z,14.30
2019-05-29T19:46:21.000Z,14.20
2019-05-29T19:48:49.552Z,14.20
2019-05-29T19:51:18.128Z,14.20
2019-05-29T19:53:46.692Z,14.30
2019-05-29T19:56:15.272Z,14.00
2019-05-29T19:58:43.896Z,14.00
2019-05-29T20:01:12.527Z,14.00
2019-05-29T20:03:41.081Z,14.00
2019-05-29T20:06:09.694Z,13.80
2019-05-29T20:08:39.627Z,13.80
2019-05-29T20:11:08.389Z,13.80
2019-05-29T20:13:37.989Z,13.80
2019-05-29T20:16:06.535Z,13.80
2019-05-29T20:18:36.167Z,13.90
2019-05-29T20:21:05.143Z,13.80
2019-05-29T20:23:34.615Z,13.80
2019-05-29T20:26:03.237Z,13.60
2019-05-29T20:28:32.123Z,13.60
2019-05-29T20:31:00.671Z,13.50
2019-05-29T20:33:30.354Z,13.30
2019-05-29T20:35:59.099Z,13.30
2019-05-29T20:38:28.868Z,13.30
2019-05-29T20:40:57.446Z,13.30
2019-05-29T20:43:26.006Z,13.40
2019-05-29T20:45:54.488Z,13.40
2019-05-29T20:48:23.063Z,13.30
2019-05-29T20:50:51.682Z,13.30
2019-05-29T20:53:20.285Z,13.30
2019-05-29T20:55:48.842Z,13.20
2019-05-29T20:58:24.508Z,13.20
2019-05-29T21:00:47.828Z,13.20
2019-05-29T21:03:16.393Z,13.20
2019-05-29T21:05:44.959Z,13.20
2019-05-29T21:08:13.528Z,13.00
2019-05-29T21:10:43.247Z,13.10
2019-05-29T21:13:12.067Z,13.20
2019-05-29T21:15:41.571Z,13.10
2019-05-29T21:18:10.301Z,13.10
2019-05-29T21:20:38.841Z,12.90
2019-05-29T21:23:07.343Z,12.70
2019-05-29T21:25:36.628Z,12.70
2019-05-29T21:28:05.274Z,12.90
2019-05-29T21:30:33.829Z,12.90
2019-05-29T21:33:03.517Z,13.00
2019-05-29T21:35:32.029Z,12.90
2019-05-29T21:38:00.581Z,12.80
2019-05-29T21:40:29.162Z,12.60
2019-05-29T21:42:58.047Z,12.60
2019-05-29T21:45:27.310Z,12.40
2019-05-29T21:47:55.864Z,12.30
2019-05-29T21:50:24.443Z,12.40
2019-05-29T21:52:52.985Z,12.10
2019-05-29T21:55:21.619Z,12.20
2019-05-29T21:57:50.471Z,12.30
2019-05-29T22:00:31.428Z,12.20
2019-05-29T22:03:00.043Z,12.20
2019-05-29T22:05:28.628Z,12.00
2019-05-29T22:07:57.181Z,11.90
2019-05-29T22:10:26.387Z,11.90
2019-05-29T22:12:56.423Z,11.80
2019-05-29T22:15:25.216Z,11.90
2019-05-29T22:17:54.873Z,11.80
2019-05-29T22:20:23.596Z,12.00
2019-05-29T22:22:53.056Z,11.80
2019-05-29T22:25:21.602Z,11.80
2019-05-29T22:27:51.229Z,11.70
2019-05-29T22:30:21.592Z,11.70
2019-05-29T22:32:51.159Z,11.70
2019-05-29T22:35:19.873Z,11.70
2019-05-29T22:37:48.425Z,11.70
2019-05-29T22:40:17.120Z,11.80
2019-05-29T22:42:45.603Z,11.70
2019-05-29T22:45:14.247Z,11.80
2019-05-29T22:47:42.797Z,11.80
2019-05-29T22:50:11.542Z,11.70
2019-05-29T22:52:40.086Z,11.80
2019-05-29T22:55:10.111Z,11.70
2019-05-29T22:57:38.655Z,11.80
2019-05-29T23:00:09.353Z,11.80
2019-05-29T23:02:37.900Z,11.80
2019-05-29T23:05:07.913Z,11.70
2019-05-29T23:07:36.463Z,11.60
2019-05-29T23:10:08.867Z,11.60
2019-05-29T23:12:37.418Z,11.70
2019-05-29T23:15:08.810Z,11.50
2019-05-29T23:17:37.356Z,11.40
2019-05-29T23:20:08.587Z,11.30
2019-05-29T23:22:37.274Z,11.10
2019-05-29T23:25:09.667Z,10.90
2019-05-29T23:27:38.235Z,10.70
2019-05-29T23:30:10.635Z,10.90
2019-05-29T23:32:39.188Z,10.50
2019-05-29T23:35:08.591Z,10.40
2019-05-29T23:37:37.175Z,10.30
2019-05-29T23:40:09.226Z,10.50
2019-05-29T23:42:37.872Z,10.50
2019-05-29T23:45:08.122Z,10.40
2019-05-29T23:47:36.713Z,10.40
2019-05-29T23:50:08.632Z,10.60
2019-05-29T23:52:37.286Z,10.50
2019-05-29T23:55:09.234Z,10.70
2019-05-29T23:57:37.870Z,10.70
